Niles, New York
Current Conditions -  °F | °C
As of 4:28 PM on Wednesday 26 Nov 2014 (Local Time) from KSYR Reporting Station
Light Snow Light Snow  
Wind Chill: 26°   Ceiling: 500
Heat Index: 32°   Visibility: 0.75mi
Dew Point: 31°   Wind: 7mph
Humidity: 96%   Direction: 340°NNW
Pressure: 30.08"   Gusts: NA
Location:  42.8921°N, 76.3835°W
Report Text: KSYR 262128Z 34006KT 3/4SM R28/5500V6000FT -SN BR BKN005 OVC014 00/M01 A3008 RMK AO2 P0001 T00001006
Loading
Personal Weather Stations






























Interactive Weather Map New forecast layout! Learn more

10-Day Weather Forecast

Advertisements
Track Severe Weather on mobile